Terminal Aerodrome Forecast
Issued by NWS

Home | Current Version | Previous Version | Graphics & Text | Print | Product List | Glossary On
Versions: 1 2 3 4 5 6 7 8 9 10 11 12
000
FTUS45 KGGW 221736
TAFOLF
TAF
KOLF 221736Z 2218/2318 25012KT P6SM SCT060
     FM231500 25016KT P6SM SCT060=

USA.gov is the U.S. government's official web portal to all federal, state and local government web resources and services.